WMKC/KBR METAR and TAF weather

Enter ICAO airport designator
Station Type Date Time Source
WMKC METAR 2020/07/06 20:00 UTC NOAA

WMKC 062000Z VRB02KT 9999 FEW020 26/24 Q1008


Station Type Date Time Source
WMKC Decoded METAR 2020/07/06 20:00 UTC NOAA

Kota Bharu, Malaysia (WMKC) 06-10N 102-17E 5M
Jul 06, 2020 - 04:00 PM EDT / 2020.07.06 2000 UTC
Wind: Variable at 2 MPH (2 KT):0
Visibility: greater than 7 mile(s):0
Sky conditions: mostly clear
Temperature: 78 F (26 C)
Dew Point: 75 F (24 C)
Relative Humidity: 88%
Pressure (altimeter): 29.77 in. Hg (1008 hPa)
ob: WMKC 062000Z VRB02KT 9999 FEW020 26/24 Q1008
cycle: 20

Station Type Date Time Source
WMKC TAF 2020/07/06 18:00 UTC NOAA

TAF WMKC 061700Z 0618/0718 VRB03KT 9999 FEW020
BECMG 0700/0701 20005KT FEW018
BECMG 0707/0708 09005KT FEW017CB
TEMPO 0710/0712 7000 -TSRA FEW017CB

Example: see airport list